createdAt,value
2019-05-20T00:02:25.990Z,20.08
2019-05-20T00:04:50.012Z,18.42
2019-05-20T00:07:21.699Z,18.53
2019-05-20T00:09:52.936Z,17.75
2019-05-20T00:12:24.548Z,17.05
2019-05-20T00:14:56.261Z,17.25
2019-05-20T00:17:28.178Z,16.50
2019-05-20T00:19:59.318Z,18.00
2019-05-20T00:22:30.968Z,17.00
2019-05-20T00:25:02.529Z,16.70
2019-05-20T00:27:34.190Z,15.72
2019-05-20T00:30:06.982Z,15.95
2019-05-20T00:32:41.858Z,15.25
2019-05-20T00:35:11.714Z,15.95
2019-05-20T00:37:43.677Z,15.85
2019-05-20T00:40:15.450Z,15.90
2019-05-20T00:45:16.923Z,15.58
2019-05-20T00:47:48.068Z,14.87
2019-05-20T00:50:19.709Z,15.95
2019-05-20T00:55:23.228Z,15.28
2019-05-20T00:57:54.787Z,14.47
2019-05-20T01:02:57.483Z,16.17
2019-05-20T01:05:28.986Z,14.63
2019-05-20T01:08:00.913Z,15.35
2019-05-20T01:10:32.558Z,14.75
2019-05-20T01:13:03.874Z,13.75
2019-05-20T01:15:35.464Z,14.70
2019-05-20T01:18:06.713Z,14.33
2019-05-20T01:20:38.356Z,13.53
2019-05-20T01:23:10.275Z,13.72
2019-05-20T01:25:41.991Z,14.35
2019-05-20T01:28:13.227Z,13.60
2019-05-20T01:30:44.480Z,14.40
2019-05-20T01:33:15.634Z,13.95
2019-05-20T01:35:47.387Z,13.25
2019-05-20T01:38:18.835Z,12.65
2019-05-20T01:40:50.143Z,13.45
2019-05-20T01:45:52.701Z,13.98
2019-05-20T01:48:24.752Z,13.75
2019-05-20T01:50:56.101Z,13.15
2019-05-20T01:55:57.936Z,13.98
2019-05-20T02:01:00.641Z,13.27
2019-05-20T02:03:32.658Z,12.75
2019-05-20T02:06:04.519Z,13.43
2019-05-20T02:08:36.260Z,12.82
2019-05-20T02:11:08.074Z,12.63
2019-05-20T02:13:41.169Z,12.98
2019-05-20T02:16:13.095Z,13.40
2019-05-20T02:18:44.845Z,13.28
2019-05-20T02:21:16.589Z,14.10
2019-05-20T02:23:48.351Z,12.85
2019-05-20T02:26:19.668Z,12.98
2019-05-20T02:28:51.578Z,13.62
2019-05-20T02:31:23.318Z,12.98
2019-05-20T02:33:55.103Z,12.73
2019-05-20T02:36:26.871Z,12.68
2019-05-20T02:38:58.182Z,12.25
2019-05-20T02:41:30.367Z,12.20
2019-05-20T02:44:03.462Z,11.70
2019-05-20T02:46:34.901Z,12.07
2019-05-20T02:49:06.564Z,12.60
2019-05-20T02:51:38.403Z,11.78
2019-05-20T02:54:10.089Z,11.22
2019-05-20T02:56:41.385Z,12.50
2019-05-20T02:59:13.000Z,12.13
2019-05-20T03:01:44.754Z,11.68
2019-05-20T03:04:16.512Z,12.13
2019-05-20T03:06:47.632Z,12.07
2019-05-20T03:11:49.509Z,12.18
2019-05-20T03:14:21.197Z,11.57
2019-05-20T03:16:52.401Z,11.10
2019-05-20T03:21:54.236Z,11.68
2019-05-20T03:24:25.978Z,12.28
2019-05-20T03:26:57.732Z,12.33
2019-05-20T03:29:29.372Z,11.55
2019-05-20T03:32:00.954Z,12.05
2019-05-20T03:34:46.448Z,11.20
2019-05-20T03:37:05.690Z,10.70
2019-05-20T03:39:37.447Z,11.25
2019-05-20T03:42:09.210Z,11.35
2019-05-20T03:44:40.964Z,12.05
2019-05-20T03:47:12.731Z,11.20
2019-05-20T03:49:44.484Z,11.20
2019-05-20T03:52:16.268Z,11.33
2019-05-20T03:54:48.002Z,11.75
2019-05-20T03:57:19.879Z,10.45
2019-05-20T03:59:51.620Z,11.20
2019-05-20T04:02:23.291Z,12.45
2019-05-20T04:05:01.934Z,11.48
2019-05-20T04:07:28.034Z,11.22
2019-05-20T04:09:59.797Z,11.38
2019-05-20T04:12:31.550Z,10.78
2019-05-20T04:15:03.428Z,10.80
2019-05-20T04:17:34.539Z,10.90
2019-05-20T04:20:07.031Z,10.80
2019-05-20T04:22:38.182Z,10.93
2019-05-20T04:27:40.367Z,11.53
2019-05-20T04:30:12.504Z,10.72
2019-05-20T04:32:43.661Z,11.00
2019-05-20T04:35:22.423Z,11.60
2019-05-20T04:37:47.914Z,11.73
2019-05-20T04:40:19.185Z,11.10
2019-05-20T04:45:21.663Z,12.15
2019-05-20T04:47:53.426Z,11.60
2019-05-20T04:50:24.255Z,11.43
2019-05-20T04:52:55.118Z,12.23
2019-05-20T04:55:25.970Z,10.45
2019-05-20T04:57:56.990Z,11.53
2019-05-20T05:00:30.164Z,10.60
2019-05-20T05:03:01.026Z,11.10
2019-05-20T05:05:37.635Z,11.60
2019-05-20T05:08:04.731Z,10.65
2019-05-20T05:10:36.596Z,11.97
2019-05-20T05:13:08.242Z,11.15
2019-05-20T05:15:40.010Z,10.70
2019-05-20T05:18:11.886Z,10.65
2019-05-20T05:20:43.651Z,10.85
2019-05-20T05:23:15.911Z,9.90
2019-05-20T05:25:47.973Z,8.90
2019-05-20T05:28:19.723Z,10.00
2019-05-20T05:30:51.486Z,9.50
2019-05-20T05:33:22.735Z,9.45
2019-05-20T05:35:54.029Z,9.83
2019-05-20T05:38:25.955Z,10.35
2019-05-20T05:40:57.607Z,9.78
2019-05-20T05:43:29.380Z,9.43
2019-05-20T05:46:01.129Z,10.60
2019-05-20T05:48:32.883Z,10.15
2019-05-20T05:51:04.220Z,10.98
2019-05-20T05:56:04.761Z,9.93
2019-05-20T05:58:35.829Z,10.13
2019-05-20T06:01:06.777Z,10.18
2019-05-20T06:03:37.746Z,11.48
2019-05-20T06:06:12.712Z,11.80
2019-05-20T06:08:42.449Z,11.15
2019-05-20T06:11:14.334Z,10.48
2019-05-20T06:13:47.094Z,10.93
2019-05-20T06:16:35.424Z,11.33
2019-05-20T06:18:53.002Z,10.03
2019-05-20T06:21:25.634Z,10.95
2019-05-20T06:24:00.866Z,11.00
2019-05-20T06:26:32.855Z,10.23
2019-05-20T06:29:04.016Z,10.38
2019-05-20T06:31:35.032Z,10.13
2019-05-20T06:34:06.870Z,10.20
2019-05-20T06:36:39.569Z,10.65
2019-05-20T06:39:12.858Z,10.32
2019-05-20T06:41:45.226Z,10.25
2019-05-20T06:44:17.177Z,10.90
2019-05-20T06:46:48.927Z,11.30
2019-05-20T06:49:20.219Z,10.58
2019-05-20T06:54:21.939Z,9.43
2019-05-20T06:59:24.716Z,10.40
2019-05-20T07:01:57.014Z,10.45
2019-05-20T07:04:28.709Z,10.40
2019-05-20T07:06:59.889Z,10.08
2019-05-20T07:09:31.728Z,9.70
2019-05-20T07:12:03.524Z,9.35
2019-05-20T07:14:35.482Z,9.35
2019-05-20T07:17:07.564Z,10.03
2019-05-20T07:19:38.594Z,8.78
2019-05-20T07:22:09.452Z,8.98
2019-05-20T07:24:40.330Z,9.65
2019-05-20T07:27:11.555Z,9.68
2019-05-20T07:32:14.265Z,10.58
2019-05-20T07:34:45.744Z,9.73
2019-05-20T07:37:17.642Z,9.53
2019-05-20T07:39:49.403Z,9.88
2019-05-20T07:42:21.006Z,9.98
2019-05-20T07:44:52.901Z,9.33
2019-05-20T07:47:24.972Z,9.33
2019-05-20T07:49:56.519Z,10.40
2019-05-20T07:52:30.132Z,9.30
2019-05-20T07:55:02.260Z,10.05
2019-05-20T07:57:36.017Z,10.10
2019-05-20T08:00:10.234Z,9.70
2019-05-20T08:02:41.840Z,9.85
2019-05-20T08:05:14.049Z,10.85
2019-05-20T08:07:51.953Z,9.98
2019-05-20T08:10:19.256Z,10.55
2019-05-20T08:12:50.747Z,10.50
2019-05-20T08:15:22.626Z,10.13
2019-05-20T08:17:54.647Z,10.35
2019-05-20T08:20:30.296Z,10.03
2019-05-20T08:23:02.565Z,11.22
2019-05-20T08:25:34.616Z,12.00
2019-05-20T08:28:06.498Z,11.35
2019-05-20T08:30:40.266Z,11.05
2019-05-20T08:33:12.263Z,10.53
2019-05-20T08:35:44.075Z,11.53
2019-05-20T08:38:15.947Z,11.30
2019-05-20T08:40:48.753Z,10.28
2019-05-20T08:43:20.439Z,11.12
2019-05-20T08:45:52.350Z,12.00
2019-05-20T08:48:24.097Z,11.75
2019-05-20T08:50:55.654Z,12.35
2019-05-20T08:53:27.211Z,13.18
2019-05-20T08:55:59.079Z,11.48
2019-05-20T08:58:30.687Z,12.80
2019-05-20T09:01:02.193Z,12.37
2019-05-20T09:03:34.046Z,12.03
2019-05-20T09:06:06.130Z,11.75
2019-05-20T09:08:37.959Z,10.82
2019-05-20T09:11:09.522Z,10.18
2019-05-20T09:13:41.183Z,10.93
2019-05-20T09:16:13.302Z,10.53
2019-05-20T09:18:44.340Z,10.70
2019-05-20T09:21:15.768Z,11.65
2019-05-20T09:23:47.069Z,12.10
2019-05-20T09:26:19.066Z,11.53
2019-05-20T09:28:51.053Z,12.07
2019-05-20T09:31:22.371Z,11.95
2019-05-20T09:33:53.812Z,11.95
2019-05-20T09:38:57.473Z,11.55
2019-05-20T09:41:29.316Z,11.50
2019-05-20T09:44:01.291Z,10.58
2019-05-20T09:46:34.365Z,11.45
2019-05-20T09:49:06.652Z,11.43
2019-05-20T09:51:38.624Z,11.88
2019-05-20T09:54:14.742Z,11.68
2019-05-20T09:56:46.458Z,12.18
2019-05-20T09:59:23.179Z,12.10
2019-05-20T10:01:56.511Z,12.65
2019-05-20T10:04:27.956Z,12.40
2019-05-20T10:07:01.905Z,11.53
2019-05-20T10:09:34.909Z,11.73
2019-05-20T10:12:06.224Z,11.63
2019-05-20T10:14:37.745Z,10.50
2019-05-20T10:19:40.476Z,11.40
2019-05-20T10:22:12.720Z,10.70
2019-05-20T10:24:43.748Z,11.85
2019-05-20T10:27:15.634Z,11.28
2019-05-20T10:29:47.383Z,11.18
2019-05-20T10:32:19.155Z,11.40
2019-05-20T10:34:50.529Z,12.13
2019-05-20T10:37:21.897Z,13.05
2019-05-20T10:39:54.128Z,12.75
2019-05-20T10:42:25.870Z,12.98
2019-05-20T10:44:57.649Z,12.30
2019-05-20T10:47:29.399Z,12.47
2019-05-20T10:50:01.172Z,12.35
2019-05-20T10:52:32.918Z,11.53
2019-05-20T10:55:04.234Z,12.07
2019-05-20T10:57:36.138Z,12.45
2019-05-20T11:00:09.644Z,14.03
2019-05-20T11:02:41.197Z,14.90
2019-05-20T11:07:43.531Z,15.90
2019-05-20T11:10:16.398Z,15.30
2019-05-20T11:12:48.224Z,17.02
2019-05-20T11:15:20.707Z,14.35
2019-05-20T11:17:52.024Z,16.45
2019-05-20T11:20:23.114Z,14.23
2019-05-20T11:22:54.506Z,13.32
2019-05-20T11:25:26.411Z,15.50
2019-05-20T11:27:58.152Z,15.72
2019-05-20T11:30:29.924Z,15.53
2019-05-20T11:33:01.779Z,19.70
2019-05-20T11:35:33.311Z,22.30
2019-05-20T11:38:04.837Z,35.38
2019-05-20T11:40:36.650Z,38.98
2019-05-20T11:43:08.417Z,48.40
2019-05-20T11:48:09.981Z,56.98
2019-05-20T11:50:41.862Z,63.85
2019-05-20T11:53:13.621Z,47.85
2019-05-20T11:58:16.510Z,46.92
2019-05-20T12:00:48.172Z,49.95
2019-05-20T12:03:19.741Z,45.03
2019-05-20T12:05:51.502Z,40.05
2019-05-20T12:10:53.778Z,38.88
2019-05-20T12:15:55.279Z,32.85
2019-05-20T12:18:26.851Z,30.05
2019-05-20T12:20:58.673Z,25.65
2019-05-20T12:26:00.595Z,23.15
2019-05-20T12:28:32.411Z,22.42
2019-05-20T12:33:34.710Z,21.12
2019-05-20T12:36:07.072Z,19.85
2019-05-20T12:38:38.836Z,20.90
2019-05-20T12:41:10.582Z,20.80
2019-05-20T12:43:44.816Z,21.27
2019-05-20T12:46:14.699Z,20.05
2019-05-20T12:48:46.548Z,20.73
2019-05-20T12:53:48.360Z,21.82
2019-05-20T12:56:20.218Z,23.75
2019-05-20T13:01:21.924Z,23.57
2019-05-20T13:03:53.658Z,23.02
2019-05-20T13:06:25.432Z,22.13
2019-05-20T13:08:57.179Z,20.02
2019-05-20T13:11:28.944Z,21.73
2019-05-20T13:14:00.303Z,21.45
2019-05-20T13:16:31.459Z,21.77
2019-05-20T13:19:03.289Z,21.37
2019-05-20T13:24:05.499Z,18.27
2019-05-20T13:26:37.348Z,17.90
2019-05-20T13:31:39.634Z,17.85
2019-05-20T13:34:11.503Z,17.73
2019-05-20T13:39:13.378Z,17.02
2019-05-20T13:41:44.693Z,15.85
2019-05-20T13:44:15.871Z,17.02
2019-05-20T13:46:47.332Z,20.88
2019-05-20T13:54:20.638Z,18.55
2019-05-20T13:56:51.866Z,16.53
2019-05-20T13:59:23.235Z,18.07
2019-05-20T14:01:54.372Z,17.98
2019-05-20T14:04:25.966Z,19.10
2019-05-20T14:37:32.175Z,24.45
2019-05-20T14:40:03.396Z,24.37
2019-05-20T14:42:35.173Z,23.57
2019-05-20T14:45:07.867Z,23.00
2019-05-20T14:47:39.632Z,24.15
2019-05-20T14:50:12.209Z,22.22
2019-05-20T14:52:43.778Z,21.77
2019-05-20T14:55:15.416Z,18.40
2019-05-20T14:57:46.991Z,20.55
2019-05-20T15:00:19.478Z,19.00
2019-05-20T15:02:50.655Z,18.00
2019-05-20T15:05:22.261Z,17.70
2019-05-20T15:07:53.662Z,18.05
2019-05-20T15:10:25.023Z,18.10
2019-05-20T15:12:56.702Z,17.85
2019-05-20T15:15:27.751Z,16.97
2019-05-20T15:17:59.189Z,16.87
2019-05-20T15:20:30.552Z,17.48
2019-05-20T15:23:02.527Z,16.10
2019-05-20T15:28:04.085Z,17.15
2019-05-20T15:30:35.429Z,16.85
2019-05-20T15:33:07.099Z,16.97
2019-05-20T15:35:38.571Z,16.10
2019-05-20T15:38:09.706Z,15.80
2019-05-20T15:40:41.030Z,16.25
2019-05-20T15:43:12.351Z,16.60
2019-05-20T15:45:43.504Z,15.98
2019-05-20T15:48:15.091Z,16.12
2019-05-20T15:50:46.950Z,14.80
2019-05-20T15:53:18.664Z,14.47
2019-05-20T15:55:49.931Z,13.85
2019-05-20T15:58:23.680Z,14.80
2019-05-20T16:00:54.018Z,14.20
2019-05-20T16:03:25.095Z,14.83
2019-05-20T16:05:59.737Z,13.70
2019-05-20T16:08:28.991Z,14.05
2019-05-20T16:11:00.619Z,13.68
2019-05-20T16:13:32.479Z,13.18
2019-05-20T16:18:33.560Z,13.03
2019-05-20T16:21:05.202Z,13.37
2019-05-20T16:23:36.969Z,14.00
2019-05-20T16:26:08.239Z,13.05
2019-05-20T16:28:39.760Z,13.15
2019-05-20T16:31:11.320Z,12.73
2019-05-20T16:33:42.681Z,13.00
2019-05-20T16:36:14.217Z,12.15
2019-05-20T16:38:46.087Z,12.45
2019-05-20T16:43:47.648Z,12.98
2019-05-20T16:46:19.525Z,11.97
2019-05-20T16:48:50.967Z,12.28
2019-05-20T16:51:22.990Z,13.28
2019-05-20T16:53:54.700Z,12.47
2019-05-20T16:56:26.069Z,12.30
2019-05-20T16:58:57.699Z,13.20
2019-05-20T17:01:29.150Z,12.37
2019-05-20T17:04:00.915Z,13.00
2019-05-20T17:06:32.352Z,12.45
2019-05-20T17:09:03.917Z,11.93
2019-05-20T17:11:35.354Z,12.03
2019-05-20T17:14:10.435Z,12.28
2019-05-20T17:16:40.225Z,12.43
2019-05-20T17:19:12.076Z,12.47
2019-05-20T17:21:43.843Z,13.20
2019-05-20T17:24:15.287Z,12.45
2019-05-20T17:26:46.361Z,11.38
2019-05-20T17:29:17.436Z,12.23
2019-05-20T17:31:49.244Z,11.93
2019-05-20T17:34:20.573Z,10.98
2019-05-20T17:36:52.161Z,12.55
2019-05-20T17:39:23.959Z,12.33
2019-05-20T17:44:25.887Z,11.93
2019-05-20T17:46:57.239Z,12.93
2019-05-20T17:49:28.810Z,12.63
2019-05-20T17:52:00.133Z,13.13
2019-05-20T17:54:31.248Z,12.50
2019-05-20T17:57:02.852Z,13.27
2019-05-20T17:59:34.599Z,12.65
2019-05-20T18:02:07.694Z,11.80
2019-05-20T18:04:39.452Z,12.25
2019-05-20T18:07:11.419Z,12.88
2019-05-20T18:12:14.200Z,12.50
2019-05-20T18:14:47.110Z,12.65
2019-05-20T18:17:18.375Z,12.75
2019-05-20T18:19:49.418Z,12.82
2019-05-20T18:22:20.946Z,12.58
2019-05-20T18:24:52.508Z,12.43
2019-05-20T18:27:24.110Z,12.45
2019-05-20T18:29:55.741Z,12.98
2019-05-20T18:32:27.092Z,11.40
2019-05-20T18:34:58.120Z,12.13
2019-05-20T18:37:29.760Z,12.15
2019-05-20T18:40:13.227Z,11.95
2019-05-20T18:42:34.210Z,11.93
2019-05-20T18:45:06.897Z,12.30
2019-05-20T18:47:38.132Z,12.60
2019-05-20T18:50:09.745Z,11.80
2019-05-20T18:52:41.121Z,12.28
2019-05-20T18:55:13.314Z,12.37
2019-05-20T18:57:45.168Z,11.30
2019-05-20T19:00:17.145Z,11.30
2019-05-20T19:05:18.089Z,11.88
2019-05-20T19:07:49.525Z,12.33
2019-05-20T19:10:21.033Z,12.53
2019-05-20T19:12:51.909Z,13.48
2019-05-20T19:15:23.387Z,12.55
2019-05-20T19:17:54.610Z,12.47
2019-05-20T19:20:25.942Z,12.37
2019-05-20T19:22:57.439Z,12.15
2019-05-20T19:25:37.482Z,12.93
2019-05-20T19:28:00.473Z,12.88
2019-05-20T19:30:32.109Z,12.15
2019-05-20T19:33:03.977Z,13.18
2019-05-20T19:35:35.645Z,14.33
2019-05-20T19:38:07.181Z,12.90
2019-05-20T19:40:38.934Z,15.05
2019-05-20T19:43:10.184Z,15.20
2019-05-20T19:45:41.836Z,14.03
2019-05-20T19:48:13.610Z,14.28
2019-05-20T19:50:44.537Z,13.62
2019-05-20T19:53:15.575Z,13.75
2019-05-20T19:55:46.879Z,14.78
2019-05-20T19:58:17.737Z,13.95
2019-05-20T20:00:48.875Z,14.23
2019-05-20T20:03:19.830Z,14.30
2019-05-20T20:05:51.526Z,13.58
2019-05-20T20:08:22.723Z,13.13
2019-05-20T20:10:54.409Z,13.60
2019-05-20T20:13:25.616Z,13.65
2019-05-20T20:15:57.332Z,13.73
2019-05-20T20:18:28.663Z,12.30
2019-05-20T20:20:59.613Z,13.70
2019-05-20T20:23:31.476Z,12.65
2019-05-20T20:26:02.829Z,13.08
2019-05-20T20:28:34.114Z,13.08
2019-05-20T20:31:06.147Z,13.70
2019-05-20T20:36:07.548Z,13.40
2019-05-20T20:38:39.261Z,13.32
2019-05-20T20:41:10.293Z,13.70
2019-05-20T20:43:41.652Z,13.40
2019-05-20T20:46:13.316Z,13.75
2019-05-20T20:48:44.526Z,13.55
2019-05-20T20:51:15.700Z,14.23
2019-05-20T20:53:46.808Z,14.67
2019-05-20T20:56:25.175Z,13.23
2019-05-20T20:58:51.424Z,13.93
2019-05-20T21:01:23.154Z,15.60
2019-05-20T21:03:54.920Z,14.78
2019-05-20T21:06:26.785Z,15.25
2019-05-20T21:08:57.984Z,14.03
2019-05-20T21:11:29.595Z,14.47
2019-05-20T21:14:01.362Z,15.18
2019-05-20T21:16:33.160Z,15.30
2019-05-20T21:19:04.459Z,15.53
2019-05-20T21:21:36.311Z,15.53
2019-05-20T21:24:07.560Z,14.38
2019-05-20T21:26:38.641Z,15.72
2019-05-20T21:29:10.361Z,14.98
2019-05-20T21:31:41.693Z,15.50
2019-05-20T21:34:13.108Z,16.15
2019-05-20T21:36:47.906Z,15.85
2019-05-20T21:39:17.708Z,16.27
2019-05-20T21:41:49.363Z,16.12
2019-05-20T21:44:20.548Z,15.63
2019-05-20T21:46:51.624Z,18.57
2019-05-20T21:49:23.198Z,19.20
2019-05-20T21:51:54.758Z,18.35
2019-05-20T21:54:26.521Z,18.02
2019-05-20T21:56:58.276Z,16.67
2019-05-20T21:59:29.784Z,16.90
2019-05-20T22:02:01.385Z,17.12
2019-05-20T22:04:33.104Z,17.57
2019-05-20T22:07:04.999Z,17.45
2019-05-20T22:09:36.254Z,17.32
2019-05-20T22:12:07.360Z,15.53
2019-05-20T22:14:38.945Z,18.97
2019-05-20T22:17:10.681Z,19.25
2019-05-20T22:19:42.619Z,18.23
2019-05-20T22:22:15.308Z,17.23
2019-05-20T22:24:46.457Z,18.77
2019-05-20T22:27:17.755Z,18.23
2019-05-20T22:29:48.764Z,18.40
2019-05-20T22:32:19.917Z,18.50
2019-05-20T22:34:53.534Z,18.12
2019-05-20T22:37:24.391Z,17.77
2019-05-20T22:39:56.038Z,19.15
2019-05-20T22:42:27.700Z,17.75
2019-05-20T22:44:59.043Z,18.70
2019-05-20T22:47:31.007Z,17.40
2019-05-20T22:50:02.223Z,18.87
2019-05-20T22:52:33.801Z,19.17
2019-05-20T22:55:06.176Z,18.15
2019-05-20T22:57:38.054Z,18.55
2019-05-20T23:00:09.191Z,19.95
2019-05-20T23:02:40.401Z,19.57
2019-05-20T23:05:12.153Z,19.00
2019-05-20T23:07:43.397Z,18.87
2019-05-20T23:10:15.514Z,20.15
2019-05-20T23:15:17.338Z,19.85
2019-05-20T23:17:48.943Z,20.25
2019-05-20T23:20:20.807Z,18.32
2019-05-20T23:22:52.271Z,19.45
2019-05-20T23:25:23.920Z,18.55
2019-05-20T23:27:55.290Z,20.15
2019-05-20T23:30:26.331Z,19.50
2019-05-20T23:32:57.864Z,29.90
2019-05-20T23:35:28.830Z,29.10
2019-05-20T23:38:00.093Z,26.40
2019-05-20T23:40:31.705Z,27.58
2019-05-20T23:43:03.570Z,27.80
2019-05-20T23:45:34.703Z,24.30
2019-05-20T23:48:06.424Z,27.27
2019-05-20T23:50:37.691Z,28.23
2019-05-20T23:53:09.269Z,24.70
2019-05-20T23:55:41.035Z,25.00
2019-05-20T23:58:12.795Z,21.97
